Progresso, New Mexico
Current Conditions -  °F | °C
As of 1:35 PM on Wednesday 26 Nov 2014 (Local Time) from K0E0 Reporting Station
Clear Clear  
Wind Chill: 56°   Ceiling: Unl
Heat Index: 56°   Visibility: 10mi
Dew Point: 21°   Wind: 16mph
Humidity: 26%   Direction: 330°NNW
Pressure: 30.32"   Gusts: 25mph
Location:  34.4464°N, 106.01°W
Report Text: K0E0 262035Z AUTO 33014G22KT 10SM CLR 13/M06 A3032 RMK AO2 T01321060
Loading
Personal Weather Stations






























Interactive Weather Map New forecast layout! Learn more

10-Day Weather Forecast

Advertisements
Track Severe Weather on mobile